createdAt,value
2023-02-06T00:01:27.696Z,56.86
2023-02-06T00:03:55.338Z,57.08
2023-02-06T00:06:24.508Z,57.09
2023-02-06T00:08:52.182Z,57.12
2023-02-06T00:11:21.179Z,56.94
2023-02-06T00:13:49.358Z,57.07
2023-02-06T00:16:18.496Z,56.77
2023-02-06T00:18:46.683Z,57.04
2023-02-06T00:21:14.966Z,57.15
2023-02-06T00:23:43.938Z,57.06
2023-02-06T00:26:11.584Z,57.00
2023-02-06T00:28:39.308Z,56.98
2023-02-06T00:31:07.717Z,56.78
2023-02-06T00:33:36.041Z,57.09
2023-02-06T00:36:04.028Z,57.13
2023-02-06T00:38:32.083Z,57.06
2023-02-06T00:41:01.104Z,57.09
2023-02-06T00:43:28.755Z,57.34
2023-02-06T00:45:58.011Z,57.15
2023-02-06T00:48:26.500Z,57.28
2023-02-06T00:50:55.066Z,57.16
2023-02-06T00:53:22.886Z,57.13
2023-02-06T00:55:50.571Z,57.05
2023-02-06T00:58:19.588Z,57.31
2023-02-06T01:00:47.272Z,57.39
2023-02-06T01:03:14.890Z,57.14
2023-02-06T01:05:42.522Z,57.21
2023-02-06T01:08:10.184Z,57.12
2023-02-06T01:10:37.846Z,57.29
2023-02-06T01:13:05.500Z,57.12
2023-02-06T01:15:34.924Z,57.22
2023-02-06T01:18:02.804Z,57.29
2023-02-06T01:20:30.581Z,57.20
2023-02-06T01:22:58.196Z,57.20
2023-02-06T01:25:25.828Z,57.29
2023-02-06T01:27:53.601Z,57.35
2023-02-06T01:30:21.324Z,57.09
2023-02-06T01:32:50.464Z,57.51
2023-02-06T01:35:18.231Z,57.37
2023-02-06T01:37:45.895Z,57.02
2023-02-06T01:40:16.350Z,57.43
2023-02-06T01:42:44.424Z,57.41
2023-02-06T01:45:36.905Z,57.45
2023-02-06T01:48:09.477Z,57.31
2023-02-06T01:50:40.455Z,57.35
2023-02-06T01:53:09.192Z,57.33
2023-02-06T01:55:40.307Z,57.25
2023-02-06T01:58:10.025Z,57.61
2023-02-06T02:00:38.040Z,57.48
2023-02-06T02:03:07.216Z,57.43
2023-02-06T02:05:35.564Z,57.64
2023-02-06T02:08:09.288Z,57.47
2023-02-06T02:10:37.042Z,57.44
2023-02-06T02:13:04.698Z,57.37
2023-02-06T02:15:46.015Z,57.38
2023-02-06T02:18:36.458Z,57.54
2023-02-06T02:21:40.470Z,57.52
2023-02-06T02:24:14.744Z,57.41
2023-02-06T02:27:11.270Z,57.14
2023-02-06T02:30:11.592Z,57.26
2023-02-06T02:32:51.697Z,57.26
2023-02-06T02:35:28.159Z,57.50
2023-02-06T02:38:04.716Z,57.48
2023-02-06T02:40:40.917Z,57.68
2023-02-06T02:43:19.034Z,57.23
2023-02-06T02:45:52.388Z,57.56
2023-02-06T02:48:24.777Z,57.60
2023-02-06T02:50:57.315Z,57.52
2023-02-06T02:53:24.990Z,57.63
2023-02-06T02:55:52.643Z,57.60
2023-02-06T02:58:24.478Z,57.53
2023-02-06T03:00:56.493Z,57.68
2023-02-06T03:03:28.770Z,57.36
2023-02-06T03:06:26.385Z,57.48
2023-02-06T03:09:00.054Z,57.71
2023-02-06T03:11:28.554Z,57.50
2023-02-06T03:14:02.077Z,57.65
2023-02-06T03:16:36.557Z,57.83
2023-02-06T03:19:12.048Z,57.88
2023-02-06T03:21:43.920Z,57.80
2023-02-06T03:24:16.590Z,57.49
2023-02-06T03:26:45.990Z,57.76
2023-02-06T03:29:17.148Z,57.73
2023-02-06T03:31:50.692Z,57.91
2023-02-06T03:34:23.428Z,57.46
2023-02-06T03:36:53.655Z,57.72
2023-02-06T03:39:21.994Z,57.58
2023-02-06T03:41:50.925Z,57.49
2023-02-06T03:44:24.796Z,57.71
2023-02-06T03:46:55.364Z,57.86
2023-02-06T03:49:26.703Z,57.60
2023-02-06T03:52:00.702Z,57.79
2023-02-06T03:54:30.006Z,57.79
2023-02-06T03:57:00.827Z,57.73
2023-02-06T03:59:28.740Z,58.08
2023-02-06T04:01:59.671Z,58.01
2023-02-06T04:04:30.754Z,57.69
2023-02-06T04:07:03.255Z,57.73
2023-02-06T04:09:30.904Z,58.09
2023-02-06T04:11:58.558Z,57.84
2023-02-06T04:14:26.198Z,58.01
2023-02-06T04:16:53.822Z,57.63
2023-02-06T04:19:21.481Z,57.83
2023-02-06T04:21:49.341Z,57.99
2023-02-06T04:24:18.321Z,57.95
2023-02-06T04:26:45.956Z,57.92
2023-02-06T04:29:13.758Z,57.71
2023-02-06T04:31:41.578Z,57.86
2023-02-06T04:34:09.444Z,57.68
2023-02-06T04:36:37.758Z,57.82
2023-02-06T04:39:06.761Z,57.79
2023-02-06T04:41:35.898Z,57.65
2023-02-06T04:44:03.515Z,57.79
2023-02-06T04:46:31.150Z,57.92
2023-02-06T04:48:58.761Z,57.98
2023-02-06T04:51:26.392Z,57.95
2023-02-06T04:53:54.086Z,57.81
2023-02-06T04:56:21.860Z,58.05
2023-02-06T04:58:50.821Z,57.95
2023-02-06T05:01:19.641Z,57.84
2023-02-06T05:03:47.673Z,58.15
2023-02-06T05:06:16.352Z,57.86
2023-02-06T05:08:44.377Z,57.87
2023-02-06T05:11:12.710Z,57.83
2023-02-06T05:13:40.371Z,57.82
2023-02-06T05:16:11.627Z,57.57
2023-02-06T05:18:39.837Z,57.84
2023-02-06T05:21:08.639Z,58.06
2023-02-06T05:23:36.254Z,57.93
2023-02-06T05:26:04.333Z,57.83
2023-02-06T05:28:33.445Z,57.77
2023-02-06T05:31:01.720Z,58.15
2023-02-06T05:33:31.017Z,57.52
2023-02-06T05:36:03.106Z,57.93
2023-02-06T05:38:30.722Z,58.21
2023-02-06T05:40:58.398Z,58.22
2023-02-06T05:43:26.554Z,57.96
2023-02-06T05:45:54.185Z,57.82
2023-02-06T05:48:21.820Z,58.01
2023-02-06T05:50:51.545Z,58.05
2023-02-06T05:53:19.502Z,57.89
2023-02-06T05:55:47.181Z,58.12
2023-02-06T05:58:14.858Z,58.15
2023-02-06T06:00:42.515Z,58.09
2023-02-06T06:03:10.229Z,58.00
2023-02-06T06:05:38.110Z,57.93
2023-02-06T06:08:07.508Z,58.19
2023-02-06T06:10:35.304Z,58.01
2023-02-06T06:13:03.225Z,58.28
2023-02-06T06:15:30.990Z,58.08
2023-02-06T06:17:58.618Z,58.09
2023-02-06T06:20:26.571Z,58.08
2023-02-06T06:22:54.205Z,58.13
2023-02-06T06:25:23.192Z,58.07
2023-02-06T06:27:50.894Z,58.09
2023-02-06T06:30:18.898Z,58.10
2023-02-06T06:32:46.529Z,58.11
2023-02-06T06:35:14.245Z,58.04
2023-02-06T06:37:41.903Z,58.60
2023-02-06T06:40:10.564Z,57.89
2023-02-06T06:42:39.614Z,58.11
2023-02-06T06:45:08.612Z,58.19
2023-02-06T06:47:36.242Z,58.23
2023-02-06T06:50:04.030Z,58.31
2023-02-06T06:52:31.686Z,58.23
2023-02-06T06:54:59.366Z,58.32
2023-02-06T06:57:27.022Z,58.30
2023-02-06T06:59:56.026Z,58.20
2023-02-06T07:02:23.653Z,58.44
2023-02-06T07:04:51.323Z,58.40
2023-02-06T07:07:18.971Z,58.54
2023-02-06T07:09:46.649Z,58.43
2023-02-06T07:12:14.276Z,58.43
2023-02-06T07:14:41.901Z,58.20
2023-02-06T07:17:10.922Z,58.07
2023-02-06T07:19:38.564Z,58.16
2023-02-06T07:22:06.306Z,58.30
2023-02-06T07:24:33.918Z,58.28
2023-02-06T07:27:01.583Z,58.49
2023-02-06T07:29:29.197Z,58.60
2023-02-06T07:31:56.846Z,58.13
2023-02-06T07:34:25.866Z,58.33
2023-02-06T07:36:53.477Z,58.53
2023-02-06T07:39:21.299Z,58.57
2023-02-06T07:41:50.345Z,58.40
2023-02-06T07:44:18.011Z,58.69
2023-02-06T07:46:45.758Z,58.64
2023-02-06T07:49:14.907Z,58.54
2023-02-06T07:51:44.564Z,58.36
2023-02-06T07:54:12.744Z,58.46
2023-02-06T07:56:40.608Z,58.49
2023-02-06T07:59:08.981Z,58.78
2023-02-06T08:01:37.360Z,58.67
2023-02-06T08:04:05.188Z,58.68
2023-02-06T08:06:32.966Z,58.50
2023-02-06T08:09:01.973Z,58.56
2023-02-06T08:11:30.963Z,58.39
2023-02-06T08:13:58.682Z,58.89
2023-02-06T08:16:26.527Z,58.76
2023-02-06T08:18:54.158Z,58.60
2023-02-06T08:21:23.445Z,58.82
2023-02-06T08:23:55.555Z,58.68
2023-02-06T08:26:26.301Z,58.62
2023-02-06T08:28:54.979Z,58.56
2023-02-06T08:31:24.560Z,58.73
2023-02-06T08:33:52.724Z,58.79
2023-02-06T08:36:22.309Z,58.65
2023-02-06T08:38:50.519Z,58.72
2023-02-06T08:41:19.914Z,58.44
2023-02-06T08:43:50.830Z,58.83
2023-02-06T08:46:20.581Z,58.96
2023-02-06T08:48:48.269Z,58.75
2023-02-06T08:51:16.279Z,58.78
2023-02-06T08:53:43.930Z,58.99
2023-02-06T08:56:13.443Z,58.60
2023-02-06T08:58:41.714Z,58.58
2023-02-06T09:01:13.732Z,58.71
2023-02-06T09:03:42.684Z,58.34
2023-02-06T09:06:11.003Z,58.39
2023-02-06T09:08:39.393Z,58.62
2023-02-06T09:11:07.698Z,58.43
2023-02-06T09:13:35.636Z,58.46
2023-02-06T09:16:03.427Z,58.70
2023-02-06T09:18:33.009Z,58.89
2023-02-06T09:21:10.157Z,58.58
2023-02-06T09:23:38.333Z,58.78
2023-02-06T09:26:06.584Z,58.74
2023-02-06T09:28:34.681Z,58.62
2023-02-06T09:31:02.552Z,58.64
2023-02-06T09:33:31.712Z,58.58
2023-02-06T09:36:03.736Z,58.60
2023-02-06T09:38:32.119Z,58.42
2023-02-06T09:41:01.932Z,58.80
2023-02-06T09:43:31.559Z,58.74
2023-02-06T09:46:04.000Z,58.74
2023-02-06T09:48:35.913Z,58.65
2023-02-06T09:51:11.081Z,59.02
2023-02-06T09:53:48.783Z,58.79
2023-02-06T09:56:23.769Z,58.81
2023-02-06T09:58:59.534Z,58.78
2023-02-06T10:01:33.478Z,58.78
2023-02-06T10:04:28.707Z,58.68
2023-02-06T10:07:01.617Z,58.61
2023-02-06T10:09:37.736Z,58.86
2023-02-06T10:12:11.965Z,58.69
2023-02-06T10:14:43.635Z,58.75
2023-02-06T10:17:17.915Z,58.50
2023-02-06T10:19:52.145Z,58.74
2023-02-06T10:22:26.911Z,58.75
2023-02-06T10:25:12.552Z,58.74
2023-02-06T10:27:43.354Z,58.69
2023-02-06T10:30:17.658Z,59.03
2023-02-06T10:32:56.321Z,58.55
2023-02-06T10:35:35.868Z,58.77
2023-02-06T10:38:23.901Z,58.61
2023-02-06T10:40:57.219Z,58.74
2023-02-06T10:43:34.198Z,58.70
2023-02-06T10:46:19.813Z,59.05
2023-02-06T10:48:56.009Z,58.91
2023-02-06T10:51:29.236Z,58.77
2023-02-06T10:54:00.799Z,58.59
2023-02-06T10:56:31.271Z,58.95
2023-02-06T10:59:03.077Z,58.81
2023-02-06T11:01:40.649Z,58.97
2023-02-06T11:04:16.790Z,58.85
2023-02-06T11:06:46.921Z,58.57
2023-02-06T11:09:15.209Z,58.97
2023-02-06T11:11:48.593Z,59.03
2023-02-06T11:14:23.185Z,58.89
2023-02-06T11:16:51.936Z,58.88
2023-02-06T11:19:26.932Z,58.92
2023-02-06T11:22:08.441Z,58.84
2023-02-06T11:24:37.314Z,58.93
2023-02-06T11:27:15.666Z,58.86
2023-02-06T11:29:47.124Z,58.84
2023-02-06T11:32:29.706Z,58.62
2023-02-06T11:35:00.043Z,59.02
2023-02-06T11:37:34.790Z,58.94
2023-02-06T11:40:27.762Z,58.69
2023-02-06T11:43:16.619Z,58.34
2023-02-06T11:45:45.421Z,58.83
2023-02-06T11:48:33.739Z,58.89
2023-02-06T11:51:01.478Z,58.89
2023-02-06T11:53:30.678Z,58.48
2023-02-06T11:56:05.359Z,58.87
2023-02-06T11:58:33.983Z,58.83
2023-02-06T12:01:05.285Z,58.86
2023-02-06T12:03:36.253Z,58.85
2023-02-06T12:06:11.197Z,58.77
2023-02-06T12:08:49.330Z,59.15
2023-02-06T12:11:25.309Z,58.96
2023-02-06T12:13:57.272Z,58.91
2023-02-06T12:16:25.469Z,58.98
2023-02-06T12:18:56.137Z,59.11
2023-02-06T12:21:30.883Z,58.83
2023-02-06T12:24:03.571Z,59.00
2023-02-06T12:26:34.807Z,59.12
2023-02-06T12:29:09.699Z,59.28
2023-02-06T12:31:42.506Z,59.00
2023-02-06T12:34:14.755Z,59.01
2023-02-06T12:36:54.973Z,59.23
2023-02-06T12:39:24.541Z,59.29
2023-02-06T12:42:07.594Z,58.81
2023-02-06T12:44:39.358Z,58.79
2023-02-06T12:47:13.967Z,59.24
2023-02-06T12:49:51.900Z,59.03
2023-02-06T12:52:24.683Z,58.88
2023-02-06T12:55:00.349Z,59.05
2023-02-06T12:57:31.191Z,59.02
2023-02-06T13:00:23.556Z,58.96
2023-02-06T13:03:06.801Z,58.91
2023-02-06T13:05:37.883Z,58.98
2023-02-06T13:08:10.590Z,59.21
2023-02-06T13:10:40.899Z,59.23
2023-02-06T13:13:27.157Z,59.03
2023-02-06T13:15:56.537Z,59.09
2023-02-06T13:18:53.958Z,59.06
2023-02-06T13:21:28.453Z,59.14
2023-02-06T13:24:15.331Z,59.05
2023-02-06T13:27:05.174Z,59.03
2023-02-06T13:29:34.156Z,59.03
2023-02-06T13:32:41.100Z,58.98
2023-02-06T13:35:20.694Z,59.17
2023-02-06T13:37:50.341Z,59.21
2023-02-06T13:40:35.637Z,59.10
2023-02-06T13:43:14.154Z,59.13
2023-02-06T13:45:45.205Z,59.22
2023-02-06T13:48:40.060Z,59.07
2023-02-06T13:51:24.095Z,59.14
2023-02-06T13:54:08.116Z,59.27
2023-02-06T13:56:50.460Z,59.00
2023-02-06T13:59:21.811Z,59.12
2023-02-06T14:01:49.647Z,59.11
2023-02-06T14:04:24.583Z,59.24
2023-02-06T14:07:25.830Z,59.27
2023-02-06T14:10:21.647Z,59.17
2023-02-06T14:13:02.847Z,59.32
2023-02-06T14:15:40.685Z,59.22
2023-02-06T14:18:19.853Z,59.04
2023-02-06T14:20:59.163Z,59.04
2023-02-06T14:23:38.848Z,59.19
2023-02-06T14:26:19.612Z,59.13
2023-02-06T14:28:56.644Z,59.12
2023-02-06T14:31:39.490Z,59.18
2023-02-06T14:34:24.406Z,59.22
2023-02-06T14:37:10.716Z,59.15
2023-02-06T14:39:44.463Z,58.99
2023-02-06T14:42:17.601Z,58.94
2023-02-06T14:44:50.510Z,59.30
2023-02-06T14:47:23.787Z,59.01
2023-02-06T14:49:52.682Z,59.49
2023-02-06T14:52:24.321Z,59.12
2023-02-06T14:54:53.260Z,59.35
2023-02-06T14:57:24.532Z,59.21
2023-02-06T14:59:54.921Z,59.24
2023-02-06T15:02:32.140Z,59.30
2023-02-06T15:05:01.970Z,59.25
2023-02-06T15:07:32.545Z,59.13
2023-02-06T15:10:03.745Z,59.44
2023-02-06T15:12:32.119Z,59.14
2023-02-06T15:15:02.916Z,59.19
2023-02-06T15:17:34.081Z,59.27
2023-02-06T15:20:25.928Z,59.27
2023-02-06T15:22:58.139Z,59.30
2023-02-06T15:25:41.241Z,59.31
2023-02-06T15:28:14.104Z,59.01
2023-02-06T15:30:41.932Z,59.40
2023-02-06T15:33:13.806Z,59.43
2023-02-06T15:35:48.525Z,59.19
2023-02-06T15:38:17.529Z,59.22
2023-02-06T15:40:47.595Z,58.94
2023-02-06T15:43:19.954Z,58.90
2023-02-06T15:45:49.829Z,58.87
2023-02-06T15:48:34.047Z,58.73
2023-02-06T15:51:03.648Z,58.60
2023-02-06T15:53:36.867Z,58.72
2023-02-06T15:56:07.464Z,58.72
2023-02-06T15:58:36.971Z,59.00
2023-02-06T16:01:06.017Z,58.83
2023-02-06T16:03:35.101Z,58.75
2023-02-06T16:06:02.817Z,58.92
2023-02-06T16:08:33.876Z,59.05
2023-02-06T16:11:05.705Z,58.87
2023-02-06T16:13:33.988Z,58.95
2023-02-06T16:16:08.848Z,58.94
2023-02-06T16:18:39.758Z,59.11
2023-02-06T16:21:23.113Z,59.04
2023-02-06T16:23:53.891Z,59.19
2023-02-06T16:26:24.427Z,58.88
2023-02-06T16:28:59.735Z,59.13
2023-02-06T16:31:29.436Z,59.05
2023-02-06T16:34:03.057Z,59.08
2023-02-06T16:36:33.578Z,59.10
2023-02-06T16:39:04.548Z,58.98
2023-02-06T16:41:34.326Z,59.28
2023-02-06T16:44:03.380Z,59.16
2023-02-06T16:46:31.505Z,58.85
2023-02-06T16:49:01.268Z,59.25
2023-02-06T16:51:31.022Z,59.30
2023-02-06T16:53:59.371Z,59.15
2023-02-06T16:56:27.126Z,59.16
2023-02-06T16:58:54.761Z,59.25
2023-02-06T17:01:25.464Z,59.27
2023-02-06T17:03:54.210Z,59.12
2023-02-06T17:06:25.861Z,59.26
2023-02-06T17:08:55.572Z,59.21
2023-02-06T17:11:23.191Z,59.16
2023-02-06T17:13:50.860Z,59.17
2023-02-06T17:16:20.907Z,59.00
2023-02-06T17:18:48.796Z,59.16
2023-02-06T17:21:19.339Z,59.38
2023-02-06T17:23:49.879Z,59.23
2023-02-06T17:26:21.045Z,58.87
2023-02-06T17:28:49.684Z,59.25
2023-02-06T17:31:19.360Z,59.27
2023-02-06T17:33:47.153Z,59.32
2023-02-06T17:36:17.857Z,59.18
2023-02-06T17:38:45.806Z,59.24
2023-02-06T17:41:14.859Z,58.96
2023-02-06T17:43:42.545Z,59.49
2023-02-06T17:46:11.857Z,59.36
2023-02-06T17:48:42.782Z,59.34
2023-02-06T17:51:10.657Z,59.47
2023-02-06T17:53:38.619Z,59.32
2023-02-06T17:56:08.969Z,59.58
2023-02-06T17:58:38.220Z,59.23
2023-02-06T18:01:06.144Z,59.30
2023-02-06T18:03:35.527Z,59.50
2023-02-06T18:06:03.867Z,59.38
2023-02-06T18:08:31.695Z,59.26
2023-02-06T18:10:59.854Z,59.24
2023-02-06T18:13:28.531Z,59.36
2023-02-06T18:15:58.785Z,59.70
2023-02-06T18:18:27.166Z,59.50
2023-02-06T18:20:55.001Z,59.51
2023-02-06T18:23:22.769Z,59.29
2023-02-06T18:25:50.569Z,59.24
2023-02-06T18:28:18.506Z,59.65
2023-02-06T18:30:46.531Z,59.36
2023-02-06T18:33:15.592Z,59.16
2023-02-06T18:35:46.459Z,59.16
2023-02-06T18:38:15.164Z,59.22
2023-02-06T18:40:45.586Z,59.41
2023-02-06T18:43:13.290Z,59.47
2023-02-06T18:45:42.191Z,59.50
2023-02-06T18:48:12.042Z,59.55
2023-02-06T18:50:43.304Z,58.79
2023-02-06T18:53:10.969Z,58.02
2023-02-06T18:55:40.421Z,57.08
2023-02-06T18:58:08.524Z,56.57
2023-02-06T19:00:37.907Z,55.53
2023-02-06T19:03:05.810Z,53.27
2023-02-06T19:05:37.420Z,50.77
2023-02-06T19:08:06.566Z,50.76
2023-02-06T19:10:34.255Z,50.35
2023-02-06T19:13:01.967Z,49.20
2023-02-06T19:15:30.880Z,48.98
2023-02-06T19:17:59.377Z,49.23
2023-02-06T19:20:27.382Z,48.84
2023-02-06T19:22:56.780Z,47.69
2023-02-06T19:25:25.791Z,48.10
2023-02-06T19:27:53.488Z,47.26
2023-02-06T19:30:21.232Z,46.63
2023-02-06T19:32:51.423Z,44.01
2023-02-06T19:35:19.156Z,42.20
2023-02-06T19:37:46.801Z,41.99
2023-02-06T19:40:14.435Z,41.64
2023-02-06T19:42:43.449Z,42.79
2023-02-06T19:45:11.098Z,42.73
2023-02-06T19:47:38.726Z,41.89
2023-02-06T19:50:07.178Z,41.92
2023-02-06T19:52:35.249Z,41.88
2023-02-06T19:55:03.363Z,41.69
2023-02-06T19:57:31.340Z,42.33
2023-02-06T20:00:00.436Z,42.89
2023-02-06T20:02:28.263Z,43.03
2023-02-06T20:04:55.929Z,42.80
2023-02-06T20:07:23.597Z,42.27
2023-02-06T20:09:52.219Z,42.27
2023-02-06T20:12:20.148Z,42.00
2023-02-06T20:14:47.823Z,41.71
2023-02-06T20:17:18.089Z,42.15
2023-02-06T20:19:45.782Z,42.95
2023-02-06T20:22:13.439Z,42.76
2023-02-06T20:24:41.069Z,42.35
2023-02-06T20:27:09.516Z,40.66
2023-02-06T20:29:39.758Z,40.18
2023-02-06T20:32:07.940Z,40.06
2023-02-06T20:34:37.174Z,39.92
2023-02-06T20:37:05.361Z,40.29
2023-02-06T20:39:33.191Z,40.43
2023-02-06T20:42:01.123Z,40.44
2023-02-06T20:44:30.954Z,40.81
2023-02-06T20:46:58.721Z,41.39
2023-02-06T20:49:28.738Z,41.51
2023-02-06T20:51:58.070Z,40.85
2023-02-06T20:54:26.213Z,40.32
2023-02-06T20:56:54.254Z,40.74
2023-02-06T20:59:21.992Z,40.75
2023-02-06T21:01:50.038Z,40.66
2023-02-06T21:04:19.298Z,40.82
2023-02-06T21:06:49.946Z,41.34
2023-02-06T21:09:19.640Z,41.46
2023-02-06T21:11:50.081Z,41.60
2023-02-06T21:14:18.534Z,40.87
2023-02-06T21:16:46.285Z,40.73
2023-02-06T21:19:18.202Z,40.54
2023-02-06T21:21:46.524Z,40.56
2023-02-06T21:24:15.315Z,40.48
2023-02-06T21:26:44.605Z,40.56
2023-02-06T21:29:13.854Z,40.26
2023-02-06T21:31:41.921Z,40.26
2023-02-06T21:34:14.106Z,40.29
2023-02-06T21:36:42.080Z,40.38
2023-02-06T21:39:12.212Z,39.84
2023-02-06T21:41:39.881Z,39.57
2023-02-06T21:44:08.867Z,39.53
2023-02-06T21:46:36.553Z,39.43
2023-02-06T21:49:06.330Z,39.18
2023-02-06T21:51:34.404Z,38.98
2023-02-06T21:54:02.075Z,38.69
2023-02-06T21:56:30.818Z,38.88
2023-02-06T21:58:58.826Z,39.71
2023-02-06T22:01:29.527Z,39.76
2023-02-06T22:03:58.176Z,39.31
2023-02-06T22:06:26.522Z,38.88
2023-02-06T22:08:55.887Z,38.54
2023-02-06T22:11:25.699Z,38.26
2023-02-06T22:13:57.735Z,38.58
2023-02-06T22:16:27.504Z,38.11
2023-02-06T22:18:55.615Z,38.11
2023-02-06T22:21:25.622Z,38.10
2023-02-06T22:23:56.385Z,37.45
2023-02-06T22:26:24.081Z,37.46
2023-02-06T22:28:51.797Z,37.35
2023-02-06T22:31:21.342Z,36.92
2023-02-06T22:33:50.751Z,36.39
2023-02-06T22:36:20.589Z,36.57
2023-02-06T22:38:53.176Z,36.65
2023-02-06T22:41:20.932Z,36.33
2023-02-06T22:43:50.981Z,36.30
2023-02-06T22:46:21.210Z,36.31
2023-02-06T22:48:50.825Z,36.04
2023-02-06T22:51:18.852Z,36.16
2023-02-06T22:53:46.923Z,36.42
2023-02-06T22:56:32.292Z,36.17
2023-02-06T22:59:02.837Z,36.26
2023-02-06T23:01:33.349Z,36.04
2023-02-06T23:04:03.627Z,36.16
2023-02-06T23:06:33.069Z,36.26
2023-02-06T23:09:02.590Z,36.16
2023-02-06T23:11:31.765Z,36.66
2023-02-06T23:14:01.653Z,36.28
2023-02-06T23:16:29.895Z,36.59
2023-02-06T23:18:57.638Z,37.28
2023-02-06T23:21:28.303Z,38.08
2023-02-06T23:23:58.372Z,39.15
2023-02-06T23:26:26.159Z,39.78
2023-02-06T23:28:53.956Z,39.81
2023-02-06T23:31:21.620Z,40.17
2023-02-06T23:33:49.348Z,40.55
2023-02-06T23:36:19.175Z,40.47
2023-02-06T23:38:48.881Z,40.96
2023-02-06T23:41:18.584Z,41.31
2023-02-06T23:43:50.771Z,41.01
2023-02-06T23:46:19.974Z,41.53
2023-02-06T23:48:48.116Z,41.75
2023-02-06T23:51:16.681Z,42.36
2023-02-06T23:53:44.734Z,42.34
2023-02-06T23:56:15.395Z,42.36
2023-02-06T23:58:43.416Z,42.58
